Vieux-Fort の空港の天気 - METARとTAF

ヘウノラ国際空港 ( TLPL / UVF ) - セントルシア Vieux-Fort
飛行場実況気象(Metar)
観測時間05/25 20:00 AST (05/26 00:00 UTC)
風向・風速東 8m/s
視程10km以上
天気現象
全天の8割程度の雲 雲底高度 760m
全天の4割程度の雲 雲底高度 1340m
気温28℃
湿度70%
気圧1016hPa
METARTLPL 260000Z 09015KT 9999 BKN025 SCT044 28/22 Q1016 NOSIG
過去の天気等 Google飛行場航空写真 Wunderground天気予報

過去48時間のMETAR

飛行場予報(TAF)
発表時間: 5/25 19:00 AST (5/25 23:00 UTC)
予報対象時間: 25日20時 AST ~ 26日20時 AST
風向・風速東 8m/s
視程10km以上
全天の4割程度の雲 雲底高度 760m
25日20時 AST ~ 26日8時 AST に 確率 40% で一時的に
天気現象しゅう雨
全天の8割程度の雲 雲底高度 460m
全天の8割程度の雲 雲底高度 1280m
TAF TLPL 252300Z 2600/2624 09016KT 9999 SCT025
PROB40 TEMPO 2600/2612 SHRA BKN015 BKN042